Latest Weather Observations for Grove

IDT60901

Issued at 5:31 pm EST Friday 17 August 2018 (issued every 10 minutes, with the page automatically refreshed every 10 minutes)

About weather observations | Map of Hobart area stations | Latest observations for Hobart area | Other Formats
Station Details ID: 094220 Name: GROVE (RESEARCH STATION) Lat: -42.99 Lon: 147.07 Height: 65.0 m
Data from the previous 72 hours. | See also: Recent months at Grove
Date/Time
EST
Temp
°C
App
Temp
°C
Dew
Point
°C
Rel
Hum
%
Delta-T
°C
Wind Press
QNH
hPa
Press
MSL
hPa
Rain since
9am
mm
Dir  Spd
km/h
Gust
km/h
Spd
kts
Gust
kts
17/05:30pm 12.6 9.0 2.9 51 4.3 NNE 11 20 6 11 - - 0.0
17/05:00pm 12.5 9.3 3.0 52 4.2 NNE 9 17 5 9 - - 0.0
17/04:30pm 13.5 9.4 2.1 46 5.0 NNW 13 22 7 12 - - 0.0
17/04:00pm 14.4 11.4 3.9 49 4.8 NNW 9 26 5 14 - - 0.0
17/03:30pm 14.6 10.2 2.5 44 5.4 NW 15 32 8 17 - - 0.0
17/03:00pm 13.9 9.4 2.0 44 5.2 WNW 15 22 8 12 - - 0.0
17/02:30pm 14.5 10.8 2.6 44 5.3 NW 11 22 6 12 - - 0.0
17/02:00pm 14.5 11.1 3.8 48 4.9 NW 11 20 6 11 - - 0.0
17/01:30pm 13.4 9.5 3.4 50 4.5 NW 13 24 7 13 - - 0.0
17/01:00pm 13.1 9.2 3.5 52 4.3 N 13 22 7 12 - - 0.0
17/12:30pm 12.3 7.1 3.3 54 4.0 NNW 20 28 11 15 - - 0.0
17/12:00pm 12.6 8.0 3.7 54 4.0 NW 17 33 9 18 - - 0.0
17/11:30am 11.5 7.6 3.4 57 3.6 NW 13 20 7 11 - - 0.0
17/11:00am 10.5 6.5 2.9 59 3.3 NNE 13 19 7 10 - - 0.0
17/10:30am 10.3 6.6 2.6 59 3.3 NNE 11 15 6 8 - - 0.0
17/10:00am 9.4 5.8 2.9 64 2.8 N 11 13 6 7 - - 0.0
17/09:30am 8.9 6.0 2.8 65 2.6 NNE 7 9 4 5 - - 0.0
17/09:00am 8.5 5.6 2.6 66 2.5 ENE 7 11 4 6 - - 0.2
17/08:30am 8.0 4.8 2.8 70 2.2 NE 9 13 5 7 - - 0.2
17/08:00am 8.0 4.7 2.5 68 2.3 N 9 17 5 9 - - 0.2
17/07:30am 8.1 4.0 2.1 66 2.5 NNW 13 17 7 9 - - 0.2
17/07:00am 5.7 3.2 3.6 86 0.9 NNW 6 11 3 6 - - 0.2
17/06:30am 7.0 4.3 2.7 74 1.8 NNE 6 11 3 6 - - 0.2
17/06:00am 6.6 4.3 3.0 78 1.5 E 4 9 2 5 - - 0.2
17/05:30am 7.9 4.5 2.1 67 2.4 NNE 9 13 5 7 - - 0.2
17/05:00am 8.0 4.6 2.0 66 2.5 N 9 15 5 8 - - 0.2
17/04:30am 8.1 4.3 1.8 64 2.6 N 11 15 6 8 - - 0.2
17/04:00am 7.8 4.1 2.3 68 2.3 N 11 17 6 9 - - 0.2
17/03:30am 8.2 4.0 1.9 64 2.6 N 13 19 7 10 - - 0.2
17/03:00am 8.1 4.0 2.1 66 2.5 N 13 19 7 10 - - 0.2
17/02:30am 7.8 4.1 2.3 68 2.3 N 11 15 6 8 - - 0.2
17/02:00am 7.8 4.4 2.0 67 2.4 N 9 11 5 6 - - 0.2
17/01:30am 7.0 3.7 2.4 72 1.9 N 9 13 5 7 - - 0.2
17/01:00am 6.3 3.0 2.7 78 1.5 N 9 19 5 10 - - 0.2
17/12:30am 4.7 2.2 3.5 92 0.5 NE 6 11 3 6 - - 0.2
17/12:00am 4.2 2.8 3.5 95 0.3 CALM 0 9 0 5 - - 0.2
 
Date/Time
EST
Temp
°C
App
Temp
°C
Dew
Point
°C
Rel
Hum
%
Delta-T
°C
Wind Press
QNH
hPa
Press
MSL
hPa
Rain since
9am
mm
Dir  Spd
km/h
Gust
km/h
Spd
kts
Gust
kts
16/11:30pm 4.2 1.6 3.2 93 0.4 NE 6 9 3 5 - - 0.2
16/11:00pm 3.9 1.3 3.2 95 0.3 NNW 6 9 3 5 - - 0.2
16/10:30pm 3.8 2.4 3.3 97 0.2 CALM 0 0 0 0 - - 0.2
16/10:00pm 3.7 1.0 2.7 93 0.4 NE 6 7 3 4 - - 0.2
16/09:30pm 4.6 2.0 3.4 92 0.5 NNW 6 7 3 4 - - 0.2
16/09:00pm 4.9 1.8 3.5 91 0.6 NNE 9 11 5 6 - - 0.2
16/08:30pm 5.6 3.8 3.5 86 0.9 WNW 2 7 1 4 - - 0.2
16/08:00pm 6.1 4.6 3.2 82 1.2 CALM 0 6 0 3 - - 0.2
16/07:30pm 7.6 4.3 2.6 70 2.1 SSW 9 13 5 7 - - 0.2
16/07:00pm 7.3 4.2 3.6 77 1.6 WSW 9 11 5 6 - - 0.2
16/06:30pm 7.5 4.3 3.3 75 1.8 WSW 9 13 5 7 - - 0.2
16/06:00pm 8.0 4.4 3.1 71 2.1 WSW 11 15 6 8 - - 0.2
16/05:30pm 8.1 4.5 2.9 70 2.2 S 11 20 6 11 - - 0.2
16/05:00pm 8.6 4.6 2.7 66 2.5 S 13 22 7 12 - - 0.2
16/04:30pm 9.1 5.0 2.2 62 2.9 SW 13 20 7 11 - - 0.2
16/04:00pm 9.4 5.4 2.6 62 2.9 SSW 13 20 7 11 - - 0.2
16/03:30pm 9.4 5.4 2.9 64 2.8 S 13 22 7 12 - - 0.2
16/03:00pm 9.7 6.3 3.8 66 2.6 SSW 11 20 6 11 - - 0.2
16/02:30pm 9.5 5.2 3.5 66 2.6 SSW 15 30 8 16 - - 0.2
16/02:00pm 9.2 3.2 3.2 66 2.6 SW 24 35 13 19 - - 0.2
16/01:30pm 9.6 4.8 2.8 62 2.9 SW 17 30 9 16 - - 0.2
16/01:00pm 9.1 5.9 3.3 67 2.5 SW 9 28 5 15 - - 0.2
16/12:30pm 10.4 4.5 1.9 55 3.6 WSW 22 37 12 20 - - 0.0
16/12:00pm 9.5 3.5 1.3 56 3.4 WSW 22 48 12 26 - - 0.0
16/11:30am 9.1 5.1 2.8 64 2.7 SW 13 26 7 14 - - 0.0
16/11:00am 8.1 4.5 2.9 70 2.2 SSW 11 24 6 13 - - 0.0
16/10:30am 8.0 0.1 0.8 60 2.9 SW 32 61 17 33 - - 0.0
16/10:29am 8.7 1.4 0.2 55 3.4 WSW 28 56 15 30 - - 0.0
16/10:28am 8.7 1.4 0.2 55 3.4 WSW 28 56 15 30 - - 0.0
16/10:00am 9.1 2.9 -0.2 52 3.7 WSW 22 35 12 19 - - 0.0
16/09:30am 7.8 3.7 2.5 69 2.2 SSW 13 26 7 14 - - 0.0
16/09:02am 8.3 1.2 1.2 61 2.9 WSW 28 50 15 27 - - 0.0
16/09:00am 8.4 1.5 0.4 57 3.2 WSW 26 50 14 27 - - 17.4
16/08:30am 7.4 1.1 1.8 67 2.3 WSW 24 35 13 19 - - 17.4
16/08:00am 6.4 2.4 2.8 78 1.5 WSW 13 28 7 15 - - 17.4
16/07:30am 6.1 1.8 3.0 80 1.3 WSW 15 35 8 19 - - 17.4
16/07:00am 6.0 2.4 3.1 82 1.2 SW 11 17 6 9 - - 17.0
16/06:30am 6.0 1.3 3.1 82 1.2 WSW 17 30 9 16 - - 16.6
16/06:00am 6.4 0.4 3.3 80 1.3 SW 24 32 13 17 - - 16.0
16/05:30am 6.4 3.7 3.6 82 1.2 WSW 7 9 4 5 - - 14.6
16/05:00am 5.3 2.4 4.6 95 0.3 NNW 9 20 5 11 - - 14.4
16/04:30am 4.7 3.1 4.5 99 0.1 N 2 7 1 4 - - 14.2
16/04:00am 5.2 2.9 4.7 97 0.2 NNE 6 7 3 4 - - 14.2
16/03:30am 5.6 2.7 4.9 95 0.3 SSE 9 19 5 10 - - 14.2
16/03:00am 5.3 3.0 4.8 97 0.2 NNE 6 9 3 5 - - 14.2
16/02:30am 5.4 2.9 4.9 97 0.2 NNE 7 9 4 5 - - 14.2
16/02:00am 5.5 3.2 5.0 97 0.2 NE 6 9 3 5 - - 14.0
16/01:30am 5.5 3.6 5.0 97 0.2 NW 4 9 2 5 - - 13.6
16/01:00am 5.3 4.1 4.6 95 0.3 CALM 0 7 0 4 - - 13.6
16/12:30am 6.1 3.8 5.0 93 0.5 WNW 6 7 3 4 - - 13.6
16/12:00am 7.0 4.5 4.5 84 1.1 SSW 7 17 4 9 - - 13.4
 
Date/Time
EST
Temp
°C
App
Temp
°C
Dew
Point
°C
Rel
Hum
%
Delta-T
°C
Wind Press
QNH
hPa
Press
MSL
hPa
Rain since
9am
mm
Dir  Spd
km/h
Gust
km/h
Spd
kts
Gust
kts
15/11:30pm 6.1 3.3 5.0 93 0.5 E 9 13 5 7 - - 12.8
15/11:00pm 6.0 3.8 5.1 94 0.4 NE 6 9 3 5 - - 12.8
15/10:30pm 7.0 4.5 4.0 81 1.3 SSE 6 9 3 5 - - 12.8
15/10:00pm 6.7 4.3 4.4 85 1.0 E 6 9 3 5 - - 12.6
15/09:30pm 6.8 4.2 4.0 82 1.2 SW 7 11 4 6 - - 12.4
15/09:00pm 5.9 3.9 4.5 91 0.6 W 4 9 2 5 - - 12.0
15/08:30pm 6.6 4.6 4.3 85 1.0 SW 4 9 2 5 - - 11.8
15/08:00pm 6.9 3.8 3.6 79 1.4 WSW 9 15 5 8 - - 11.0
15/07:30pm 7.2 2.6 3.7 78 1.5 W 17 43 9 23 - - 9.4
15/07:00pm 9.0 3.4 0.9 57 3.3 W 20 43 11 23 - - 8.0
15/06:30pm 8.4 3.8 1.3 61 2.9 W 15 24 8 13 - - 8.0
15/06:00pm 8.4 2.9 1.9 63 2.7 W 20 50 11 27 - - 8.0
15/05:56pm 8.5 1.5 2.0 63 2.7 WNW 28 50 15 27 - - 8.0
15/05:30pm 7.0 4.3 3.5 78 1.5 N 7 13 4 7 - - 8.0
15/05:00pm 7.4 4.3 3.7 77 1.6 W 9 30 5 16 - - 7.8
15/04:30pm 8.0 2.7 3.1 71 2.1 W 20 37 11 20 - - 6.8
15/04:00pm 8.2 1.2 1.9 64 2.6 WSW 28 52 15 28 - - 6.4
15/03:52pm 9.2 0.7 1.2 57 3.3 WSW 35 54 19 29 - - 6.6
15/03:51pm 9.2 0.7 1.2 57 3.3 WSW 35 54 19 29 - - 6.4
15/03:30pm 9.0 4.7 3.2 67 2.5 W 15 26 8 14 - - 6.4
15/03:00pm 8.4 2.8 3.3 70 2.2 W 22 35 12 19 - - 6.2
15/02:47pm 9.0 1.3 2.4 63 2.8 W 32 67 17 36 - - 6.0
15/02:42pm 8.4 -1.5 3.0 69 2.3 WSW 44 67 24 36 - - 5.8
15/02:41pm 8.7 1.0 3.4 69 2.3 W 33 54 18 29 - - 5.8
15/02:30pm 9.8 4.1 3.1 63 2.9 SW 22 33 12 18 - - 5.2
15/02:00pm 10.4 5.2 2.5 58 3.4 W 19 33 10 18 - - 5.0
15/01:30pm 7.7 4.4 4.3 79 1.5 WSW 11 17 6 9 - - 5.0
15/01:00pm 7.7 1.6 3.0 72 2.0 WSW 24 43 13 23 - - 4.6
15/12:36pm 7.7 1.1 4.3 79 1.5 WSW 28 46 15 25 - - 4.4
15/12:35pm 7.7 1.1 4.3 79 1.5 WSW 28 46 15 25 - - 4.2
15/12:30pm 7.4 0.8 4.2 80 1.4 WSW 28 44 15 24 - - 4.0
15/12:00pm 10.2 5.8 2.8 60 3.2 W 15 28 8 15 - - 3.2
15/11:30am 9.6 4.8 2.6 61 3.0 WNW 17 28 9 15 - - 3.2
15/11:16am 9.3 2.4 2.7 63 2.8 WNW 28 41 15 22 - - 3.4
15/11:00am 9.6 5.3 3.1 64 2.8 W 15 20 8 11 - - 3.2
15/10:30am 9.2 3.5 2.9 65 2.7 WNW 22 37 12 20 - - 3.2
15/10:00am 8.7 3.3 2.3 64 2.7 W 20 30 11 16 - - 2.4
15/09:30am 7.3 2.7 3.8 78 1.5 WNW 17 28 9 15 - - 2.2
15/09:00am 9.3 4.8 1.9 60 3.1 W 15 26 8 14 - - 4.8
15/08:30am 7.2 2.3 4.2 81 1.3 NW 19 52 10 28 - - 4.6
15/08:28am 7.0 1.9 4.2 82 1.2 NW 20 32 11 17 - - 4.6
15/08:27am 7.0 1.9 4.2 82 1.2 NW 20 65 11 35 - - 4.6
15/08:19am 9.0 -0.9 1.8 60 3.0 NNW 43 65 23 35 - - 4.2
15/08:18am 9.0 -0.9 1.8 60 3.0 NNW 43 65 23 35 - - 4.2
15/08:00am 9.1 3.6 1.9 60 3.0 WNW 20 46 11 25 - - 4.2
15/07:33am 9.6 2.0 0.5 53 3.7 WNW 30 52 16 28 - - 4.2
15/07:32am 9.6 2.4 0.5 53 3.7 WNW 28 52 15 28 - - 4.2
15/07:30am 9.2 3.2 1.2 57 3.3 WNW 22 39 12 21 - - 4.2
15/07:00am 8.0 0.5 3.3 72 2.0 W 32 63 17 34 - - 4.0
15/06:54am 9.0 1.6 2.1 62 2.9 WNW 30 63 16 34 - - 3.6
15/06:30am 10.0 3.5 0.4 51 3.9 WSW 24 46 13 25 - - 3.2
15/06:05am 11.2 2.6 -2.6 38 5.3 W 33 52 18 28 - - 3.2
15/06:03am 11.3 1.5 -3.2 36 5.5 WSW 39 52 21 28 - - 3.2
15/06:00am 11.2 1.5 -2.6 38 5.3 W 39 61 21 33 - - 3.2
15/05:58am 11.1 2.5 -2.4 39 5.2 W 33 61 18 33 - - 3.2
15/05:30am 9.4 6.1 2.6 62 2.9 WSW 9 17 5 9 - - 3.2
15/05:00am 10.3 5.1 2.3 57 3.4 WSW 19 33 10 18 - - 3.2
15/04:30am 10.9 6.6 0.8 49 4.2 WNW 13 26 7 14 - - 3.2
15/04:12am 10.9 3.7 0.8 49 4.2 NW 28 56 15 30 - - 3.2
15/04:11am 10.9 3.7 0.8 49 4.2 NW 28 56 15 30 - - 3.2
15/04:00am 10.7 6.8 1.1 51 4.0 WNW 11 48 6 26 - - 3.2
15/03:37am 11.8 5.0 2.9 54 3.9 W 28 57 15 31 - - 3.2
15/03:34am 11.9 4.6 4.4 60 3.4 WNW 32 56 17 30 - - 3.2
15/03:30am 11.8 7.2 5.6 66 2.9 W 19 96 10 52 - - 3.2
15/03:28am 12.1 3.2 5.2 62 3.2 W 41 61 22 33 - - 3.2
15/03:27am 12.1 3.2 5.2 62 3.2 W 41 96 22 52 - - 3.2
15/03:26am 12.4 0.0 4.8 60 3.5 NW 59 96 32 52 - - 3.2
15/03:25am 12.4 0.0 4.8 60 3.5 NW 59 96 32 52 - - 3.2
15/03:24am 12.4 5.2 4.8 60 3.5 NW 32 91 17 49 - - 3.0
15/03:00am 12.1 5.5 5.9 66 2.9 NW 30 65 16 35 - - 0.8
15/02:39am 14.2 6.0 2.8 46 5.1 WNW 35 56 19 30 - - 0.0
15/02:38am 14.2 6.0 2.8 46 5.1 WNW 35 56 19 30 - - 0.0
15/02:30am 14.0 9.3 3.4 49 4.8 NNW 17 28 9 15 - - 0.0
15/02:18am 14.6 7.6 2.2 43 5.5 NNW 28 69 15 37 - - 0.0
15/02:16am 14.6 6.9 2.2 43 5.5 NNW 32 69 17 37 - - 0.0
15/02:00am 14.4 8.6 2.5 44 5.3 N 22 44 12 24 - - 0.0
15/01:38am 15.2 8.1 1.2 38 6.1 NNW 28 52 15 28 - - 0.0
15/01:37am 15.2 8.1 1.2 38 6.1 NNW 28 52 15 28 - - 0.0
15/01:30am 14.8 8.9 1.5 40 5.8 NNW 22 43 12 23 - - 0.0
15/01:00am 14.2 8.8 2.2 44 5.3 N 20 41 11 22 - - 0.0
15/12:49am 14.5 7.4 1.4 41 5.7 NNW 28 54 15 29 - - 0.0
15/12:48am 14.5 7.4 1.4 41 5.7 NNW 28 54 15 29 - - 0.0
15/12:30am 14.1 8.2 1.7 43 5.4 NNW 22 39 12 21 - - 0.0
15/12:14am 14.3 7.2 1.4 41 5.6 NNW 28 57 15 31 - - 0.0
15/12:10am 14.4 6.9 1.2 40 5.7 NNW 30 57 16 31 - - 0.0
15/12:00am 14.3 7.6 1.7 42 5.5 N 26 54 14 29 - - 0.0
 
Date/Time
EST
Temp
°C
App
Temp
°C
Dew
Point
°C
Rel
Hum
%
Delta-T
°C
Wind Press
QNH
hPa
Press
MSL
hPa
Rain since
9am
mm
Dir  Spd
km/h
Gust
km/h
Spd
kts
Gust
kts
14/11:30pm 14.1 7.9 2.0 44 5.3 NNW 24 37 13 20 - - 0.0
14/11:00pm 14.3 8.4 1.4 41 5.6 NNW 22 46 12 25 - - 0.0
14/10:30pm 14.3 8.9 1.1 40 5.7 NNW 19 33 10 18 - - 0.0
14/10:00pm 15.1 9.0 0.7 37 6.2 NW 22 35 12 19 - - 0.0
14/09:30pm 15.0 11.5 1.2 39 6.0 W 9 32 5 17 - - 0.0
14/09:00pm 15.3 10.6 0.7 37 6.3 WNW 15 30 8 16 - - 0.0
14/08:30pm 14.7 9.8 1.7 41 5.7 NW 17 39 9 21 - - 0.0
14/08:00pm 14.4 8.9 1.9 42 5.5 NNW 20 39 11 21 - - 0.0
14/07:30pm 14.6 9.0 1.5 41 5.7 NNW 20 28 11 15 - - 0.0
14/07:00pm 14.2 8.9 1.6 42 5.5 WNW 19 33 10 18 - - 0.0
14/06:34pm 14.5 7.4 1.1 40 5.8 WNW 28 46 15 25 - - 0.0
14/06:30pm 14.2 7.9 1.6 42 5.5 WNW 24 46 13 25 - - 0.0
14/06:16pm 14.5 7.3 0.7 39 5.9 WNW 28 50 15 27 - - 0.0
14/06:00pm 14.1 7.3 1.1 41 5.6 WNW 26 52 14 28 - - 0.0

Latest Capital City Observations: Canberra | Sydney | Melbourne | Brisbane | Adelaide | Perth | Hobart | Darwin

Other Formats:

Comma delimited format used in spreadsheet applications
http://www.bom.gov.au/fwo/IDT60901/IDT60901.95977.axf

JavaScript Object Notation format (JSON) in row-major order
http://www.bom.gov.au/fwo/IDT60901/IDT60901.95977.json